createdAt,value
2023-03-12T00:00:49.840Z,99.90
2023-03-12T00:03:17.353Z,99.90
2023-03-12T00:05:45.314Z,99.90
2023-03-12T00:08:13.577Z,99.90
2023-03-12T00:10:41.598Z,99.90
2023-03-12T00:13:09.166Z,99.90
2023-03-12T00:15:38.077Z,99.90
2023-03-12T00:18:05.507Z,99.90
2023-03-12T00:20:32.628Z,99.90
2023-03-12T00:22:59.896Z,99.90
2023-03-12T00:25:26.907Z,99.90
2023-03-12T00:27:53.870Z,99.90
2023-03-12T00:30:21.199Z,99.90
2023-03-12T00:32:48.266Z,99.90
2023-03-12T00:35:15.380Z,99.90
2023-03-12T00:37:42.539Z,99.90
2023-03-12T00:40:11.490Z,99.90
2023-03-12T00:42:38.435Z,99.90
2023-03-12T00:45:05.906Z,99.90
2023-03-12T00:47:32.876Z,99.90
2023-03-12T00:49:59.818Z,99.90
2023-03-12T00:52:26.802Z,99.90
2023-03-12T00:54:58.293Z,99.90
2023-03-12T00:57:25.623Z,99.90
2023-03-12T00:59:52.674Z,99.90
2023-03-12T01:02:19.642Z,99.90
2023-03-12T01:04:46.634Z,99.90
2023-03-12T01:07:13.754Z,99.90
2023-03-12T01:09:40.938Z,99.90
2023-03-12T01:12:08.262Z,99.90
2023-03-12T01:14:35.276Z,99.90
2023-03-12T01:17:02.190Z,99.90
2023-03-12T01:19:29.307Z,99.90
2023-03-12T01:21:56.239Z,99.90
2023-03-12T01:24:23.297Z,99.90
2023-03-12T01:26:50.213Z,99.90
2023-03-12T01:29:17.296Z,99.90
2023-03-12T01:31:44.258Z,99.90
2023-03-12T01:34:12.032Z,99.90
2023-03-12T01:36:39.008Z,99.90
2023-03-12T01:39:06.085Z,99.90
2023-03-12T01:41:34.014Z,99.90
2023-03-12T01:44:03.957Z,99.90
2023-03-12T01:46:36.033Z,99.90
2023-03-12T01:49:14.409Z,99.90
2023-03-12T01:51:50.447Z,99.90
2023-03-12T01:54:33.765Z,99.90
2023-03-12T01:57:03.041Z,99.90
2023-03-12T01:59:54.505Z,99.90
2023-03-12T02:02:27.113Z,99.90
2023-03-12T02:05:11.701Z,99.90
2023-03-12T02:07:38.656Z,99.90
2023-03-12T02:10:06.265Z,99.90
2023-03-12T02:12:33.282Z,99.90
2023-03-12T02:15:00.329Z,99.90
2023-03-12T02:17:27.362Z,99.90
2023-03-12T02:20:16.495Z,99.90
2023-03-12T02:22:50.958Z,99.90
2023-03-12T02:25:41.191Z,99.90
2023-03-12T02:28:12.703Z,99.90
2023-03-12T02:30:43.343Z,99.90
2023-03-12T02:33:11.045Z,99.90
2023-03-12T02:35:38.777Z,99.90
2023-03-12T02:38:34.517Z,99.90
2023-03-12T02:41:23.983Z,99.90
2023-03-12T02:44:03.124Z,99.90
2023-03-12T02:46:34.886Z,99.90
2023-03-12T02:49:02.763Z,99.90
2023-03-12T02:51:29.826Z,99.90
2023-03-12T02:53:56.848Z,99.90
2023-03-12T02:56:28.261Z,99.90
2023-03-12T02:58:55.464Z,99.90
2023-03-12T03:01:22.606Z,99.90
2023-03-12T03:03:49.976Z,99.90
2023-03-12T03:06:17.479Z,99.90
2023-03-12T03:08:44.545Z,99.90
2023-03-12T03:11:12.214Z,99.90
2023-03-12T03:13:39.437Z,99.90
2023-03-12T03:16:06.808Z,99.90
2023-03-12T03:18:33.993Z,99.90
2023-03-12T03:21:10.016Z,99.90
2023-03-12T03:23:37.279Z,99.90
2023-03-12T03:26:04.357Z,99.90
2023-03-12T03:28:31.691Z,99.90
2023-03-12T03:31:01.984Z,99.90
2023-03-12T03:33:31.347Z,99.90
2023-03-12T03:35:59.899Z,99.90
2023-03-12T03:38:29.507Z,99.90
2023-03-12T03:40:56.777Z,99.90
2023-03-12T03:43:24.575Z,99.90
2023-03-12T03:46:05.948Z,99.90
2023-03-12T03:48:33.396Z,99.90
2023-03-12T03:51:06.172Z,99.90
2023-03-12T03:53:34.472Z,99.90
2023-03-12T03:56:15.205Z,99.90
2023-03-12T03:58:42.330Z,99.90
2023-03-12T04:01:09.617Z,99.90
2023-03-12T04:03:36.850Z,99.90
2023-03-12T04:06:06.435Z,99.90
2023-03-12T04:08:35.719Z,99.90
2023-03-12T04:11:15.297Z,99.90
2023-03-12T04:13:42.507Z,99.90
2023-03-12T04:16:10.414Z,99.90
2023-03-12T04:18:37.959Z,99.90
2023-03-12T04:21:06.071Z,99.90
2023-03-12T04:23:33.305Z,99.90
2023-03-12T04:26:00.406Z,99.90
2023-03-12T04:28:27.452Z,99.90
2023-03-12T04:31:02.272Z,99.90
2023-03-12T04:33:32.123Z,99.90
2023-03-12T04:35:59.159Z,99.90
2023-03-12T04:38:27.471Z,99.90
2023-03-12T04:41:01.793Z,99.90
2023-03-12T04:43:30.030Z,99.90
2023-03-12T04:45:57.864Z,99.90
2023-03-12T04:48:25.552Z,99.90
2023-03-12T04:50:52.593Z,99.90
2023-03-12T04:53:19.749Z,99.90
2023-03-12T04:55:46.849Z,99.90
2023-03-12T04:58:15.286Z,99.90
2023-03-12T05:00:42.518Z,99.90
2023-03-12T05:03:09.773Z,99.90
2023-03-12T05:05:37.087Z,99.90
2023-03-12T05:08:05.062Z,99.90
2023-03-12T05:10:32.143Z,99.90
2023-03-12T05:12:59.671Z,99.90
2023-03-12T05:15:26.979Z,99.90
2023-03-12T05:17:54.924Z,99.90
2023-03-12T05:20:22.372Z,99.90
2023-03-12T05:22:49.331Z,99.90
2023-03-12T05:25:16.353Z,99.90
2023-03-12T05:27:43.308Z,99.90
2023-03-12T05:30:11.010Z,99.90
2023-03-12T05:32:38.073Z,99.90
2023-03-12T05:35:05.569Z,99.90
2023-03-12T05:37:32.725Z,99.90
2023-03-12T05:40:00.796Z,99.90
2023-03-12T05:42:27.687Z,99.90
2023-03-12T05:44:54.724Z,99.90
2023-03-12T05:47:22.506Z,99.90
2023-03-12T05:49:49.499Z,99.90
2023-03-12T05:52:16.444Z,99.90
2023-03-12T05:54:43.412Z,99.90
2023-03-12T05:57:10.314Z,99.90
2023-03-12T05:59:37.319Z,99.90
2023-03-12T06:02:04.444Z,99.90
2023-03-12T06:04:31.604Z,99.90
2023-03-12T06:06:58.556Z,99.90
2023-03-12T06:09:25.612Z,99.90
2023-03-12T06:11:52.557Z,99.90
2023-03-12T06:14:19.462Z,99.90
2023-03-12T06:16:46.525Z,99.90
2023-03-12T06:19:16.198Z,99.90
2023-03-12T06:21:44.057Z,99.90
2023-03-12T06:24:11.150Z,99.90
2023-03-12T06:26:38.527Z,99.90
2023-03-12T06:29:05.472Z,99.90
2023-03-12T06:31:32.865Z,99.90
2023-03-12T06:33:59.868Z,99.90
2023-03-12T06:36:26.899Z,99.90
2023-03-12T06:38:56.954Z,99.90
2023-03-12T06:41:24.195Z,99.90
2023-03-12T06:43:51.630Z,99.90
2023-03-12T06:46:22.004Z,99.90
2023-03-12T06:48:49.517Z,99.90
2023-03-12T06:51:17.689Z,99.90
2023-03-12T06:53:45.888Z,99.90
2023-03-12T06:56:13.388Z,99.90
2023-03-12T06:58:40.455Z,99.90
2023-03-12T07:01:07.826Z,99.90
2023-03-12T07:03:35.034Z,99.90
2023-03-12T07:06:01.990Z,99.90
2023-03-12T07:08:32.584Z,99.90
2023-03-12T07:11:03.478Z,99.90
2023-03-12T07:13:30.977Z,99.90
2023-03-12T07:15:58.277Z,99.90
2023-03-12T07:18:25.519Z,99.90
2023-03-12T07:20:53.146Z,99.90
2023-03-12T07:23:20.726Z,99.90
2023-03-12T07:25:48.241Z,99.90
2023-03-12T07:28:16.136Z,99.90
2023-03-12T07:30:43.530Z,99.90
2023-03-12T07:33:13.263Z,99.90
2023-03-12T07:35:40.697Z,99.90
2023-03-12T07:38:08.627Z,99.90
2023-03-12T07:40:36.538Z,99.90
2023-03-12T07:43:06.858Z,99.90
2023-03-12T07:45:33.847Z,99.90
2023-03-12T07:48:00.882Z,99.90
2023-03-12T07:50:28.021Z,99.90
2023-03-12T07:52:55.017Z,99.90
2023-03-12T07:55:22.031Z,99.90
2023-03-12T07:57:49.316Z,99.90
2023-03-12T08:00:17.354Z,99.90
2023-03-12T08:02:44.541Z,99.90
2023-03-12T08:05:11.770Z,99.90
2023-03-12T08:07:38.727Z,99.90
2023-03-12T08:10:08.147Z,99.90
2023-03-12T08:12:35.445Z,99.90
2023-03-12T08:15:02.358Z,99.90
2023-03-12T08:17:29.307Z,99.90
2023-03-12T08:19:56.558Z,99.90
2023-03-12T08:22:23.567Z,99.90
2023-03-12T08:24:51.067Z,99.90
2023-03-12T08:27:18.092Z,99.90
2023-03-12T08:29:45.107Z,99.90
2023-03-12T08:32:12.323Z,99.90
2023-03-12T08:34:39.330Z,99.90
2023-03-12T08:37:06.518Z,99.90
2023-03-12T08:39:33.747Z,99.90
2023-03-12T08:42:00.918Z,99.90
2023-03-12T08:44:27.986Z,99.90
2023-03-12T08:46:55.229Z,99.90
2023-03-12T08:49:22.764Z,99.90
2023-03-12T08:51:51.981Z,99.90
2023-03-12T08:54:20.321Z,99.90
2023-03-12T08:56:52.088Z,99.90
2023-03-12T08:59:20.857Z,99.90
2023-03-12T09:01:48.426Z,99.90
2023-03-12T09:04:15.969Z,99.90
2023-03-12T09:06:43.652Z,99.90
2023-03-12T09:09:10.662Z,99.90
2023-03-12T09:11:39.989Z,99.90
2023-03-12T09:14:59.560Z,99.90
2023-03-12T09:16:54.525Z,99.90
2023-03-12T09:19:21.581Z,99.90
2023-03-12T09:21:48.660Z,99.90
2023-03-12T09:24:15.823Z,99.90
2023-03-12T09:26:43.002Z,99.90
2023-03-12T09:29:09.949Z,99.90
2023-03-12T09:31:37.237Z,99.90
2023-03-12T09:34:05.133Z,99.90
2023-03-12T09:36:32.725Z,99.90
2023-03-12T09:38:59.882Z,99.90
2023-03-12T09:41:30.424Z,99.90
2023-03-12T09:44:00.110Z,99.90
2023-03-12T09:46:37.830Z,99.90
2023-03-12T09:49:11.941Z,99.90
2023-03-12T09:51:43.585Z,99.90
2023-03-12T09:54:32.365Z,99.90
2023-03-12T09:57:02.880Z,99.90
2023-03-12T09:59:29.990Z,99.90
2023-03-12T10:01:58.531Z,99.90
2023-03-12T10:05:04.034Z,99.90
2023-03-12T10:07:36.055Z,99.90
2023-03-12T10:14:24.188Z,99.90
2023-03-12T10:17:40.506Z,99.90
2023-03-12T10:20:19.502Z,99.90
2023-03-12T10:22:50.348Z,99.90
2023-03-12T10:25:32.794Z,99.90
2023-03-12T10:28:11.996Z,99.80
2023-03-12T10:30:44.114Z,97.90
2023-03-12T10:33:15.924Z,98.00
2023-03-12T10:35:43.279Z,96.70
2023-03-12T10:38:16.952Z,96.10
2023-03-12T10:40:43.918Z,93.70
2023-03-12T10:43:10.854Z,92.90
2023-03-12T10:45:45.109Z,91.90
2023-03-12T10:48:22.752Z,91.10
2023-03-12T10:51:08.620Z,91.30
2023-03-12T10:53:48.656Z,91.50
2023-03-12T11:00:12.055Z,87.80
2023-03-12T11:02:48.572Z,85.60
2023-03-12T11:05:37.140Z,83.80
2023-03-12T11:08:18.523Z,83.20
2023-03-12T11:10:47.094Z,83.50
2023-03-12T11:13:43.493Z,84.70
2023-03-12T11:16:19.433Z,83.30
2023-03-12T11:19:04.207Z,82.00
2023-03-12T11:21:38.313Z,72.90
2023-03-12T11:24:11.808Z,73.80
2023-03-12T11:26:52.082Z,71.30
2023-03-12T11:29:30.089Z,68.90
2023-03-12T11:36:09.342Z,72.00
2023-03-12T11:38:45.756Z,71.30
2023-03-12T11:41:30.778Z,71.00
2023-03-12T11:44:03.357Z,70.40
2023-03-12T11:46:46.996Z,71.50
2023-03-12T11:49:41.812Z,73.10
2023-03-12T11:52:23.172Z,72.60
2023-03-12T11:55:07.985Z,70.80
2023-03-12T11:57:44.119Z,68.30
2023-03-12T12:00:27.949Z,70.30
2023-03-12T12:03:24.093Z,71.00
2023-03-12T12:06:12.527Z,73.00
2023-03-12T12:09:08.454Z,71.40
2023-03-12T12:12:11.317Z,71.40
2023-03-12T12:15:02.875Z,71.10
2023-03-12T12:18:07.454Z,71.70
2023-03-12T12:20:59.020Z,68.70
2023-03-12T12:23:55.665Z,68.20
2023-03-12T12:26:33.009Z,65.20
2023-03-12T12:29:26.256Z,65.60
2023-03-12T12:31:57.308Z,67.10
2023-03-12T12:34:30.121Z,67.20
2023-03-12T12:37:22.926Z,68.20
2023-03-12T12:40:15.145Z,64.50
2023-03-12T12:43:21.094Z,63.20
2023-03-12T12:45:50.274Z,61.80
2023-03-12T12:48:28.552Z,60.80
2023-03-12T12:51:00.221Z,63.10
2023-03-12T12:53:41.718Z,64.50
2023-03-12T12:56:17.676Z,63.80
2023-03-12T12:59:08.066Z,64.50
2023-03-12T13:01:36.780Z,64.60
2023-03-12T13:04:13.896Z,67.90
2023-03-12T13:07:08.485Z,68.30
2023-03-12T13:09:46.305Z,68.10
2023-03-12T13:12:14.670Z,70.10
2023-03-12T13:14:46.056Z,71.10
2023-03-12T13:17:27.393Z,72.90
2023-03-12T13:20:21.008Z,75.10
2023-03-12T13:23:03.377Z,75.00
2023-03-12T13:25:41.926Z,75.60
2023-03-12T13:28:33.321Z,74.70
2023-03-12T13:31:02.436Z,73.50
2023-03-12T13:33:45.526Z,74.00
2023-03-12T13:36:24.668Z,73.60
2023-03-12T13:39:06.789Z,73.10
2023-03-12T13:41:41.064Z,75.00
2023-03-12T13:44:23.330Z,72.10
2023-03-12T13:47:02.960Z,72.40
2023-03-12T13:49:55.420Z,73.30
2023-03-12T13:52:26.262Z,70.70
2023-03-12T13:55:26.583Z,73.10
2023-03-12T13:58:17.009Z,71.40
2023-03-12T14:00:54.616Z,72.90
2023-03-12T14:03:21.624Z,70.50
2023-03-12T14:05:57.028Z,71.30
2023-03-12T14:08:45.797Z,73.00
2023-03-12T14:11:33.563Z,70.40
2023-03-12T14:14:21.464Z,71.70
2023-03-12T14:16:52.253Z,71.30
2023-03-12T14:19:29.324Z,73.10
2023-03-12T14:22:00.249Z,72.30
2023-03-12T14:24:39.587Z,71.60
2023-03-12T14:27:15.211Z,70.40
2023-03-12T14:29:46.925Z,69.20
2023-03-12T14:32:19.222Z,70.60
2023-03-12T14:34:52.379Z,69.40
2023-03-12T14:37:38.071Z,70.00
2023-03-12T14:40:24.417Z,67.50
2023-03-12T14:42:51.665Z,68.40
2023-03-12T14:45:21.421Z,67.80
2023-03-12T14:47:53.513Z,69.30
2023-03-12T14:50:27.209Z,69.00
2023-03-12T14:52:57.139Z,70.00
2023-03-12T14:55:26.268Z,69.00
2023-03-12T14:58:14.463Z,69.10
2023-03-12T15:00:44.030Z,69.10
2023-03-12T15:03:16.755Z,67.80
2023-03-12T15:05:51.497Z,68.00
2023-03-12T15:08:19.988Z,67.80
2023-03-12T15:10:57.184Z,67.70
2023-03-12T15:13:26.510Z,67.00
2023-03-12T15:15:55.680Z,66.00
2023-03-12T15:18:31.665Z,65.30
2023-03-12T15:21:00.926Z,66.30
2023-03-12T15:27:30.116Z,66.70
2023-03-12T15:29:59.066Z,67.60
2023-03-12T15:32:28.277Z,67.70
2023-03-12T15:38:50.218Z,69.60
2023-03-12T15:41:28.264Z,70.90
2023-03-12T15:43:57.491Z,72.00
2023-03-12T15:46:26.342Z,71.90
2023-03-12T15:48:58.213Z,73.00
2023-03-12T15:51:33.532Z,73.80
2023-03-12T15:54:03.094Z,74.20
2023-03-12T15:56:33.530Z,74.20
2023-03-12T15:59:03.582Z,76.70
2023-03-12T16:01:30.729Z,75.30
2023-03-12T16:03:58.845Z,76.30
2023-03-12T16:06:29.863Z,76.80
2023-03-12T16:09:00.004Z,78.20
2023-03-12T16:11:31.048Z,78.70
2023-03-12T16:14:16.783Z,79.60
2023-03-12T16:16:43.818Z,80.90
2023-03-12T16:19:17.286Z,81.70
2023-03-12T16:21:45.171Z,82.10
2023-03-12T16:24:12.706Z,83.70
2023-03-12T16:26:52.257Z,86.20
2023-03-12T16:33:09.325Z,89.00
2023-03-12T16:35:36.819Z,93.20
2023-03-12T16:38:04.409Z,95.40
2023-03-12T16:40:35.544Z,98.20
2023-03-12T16:43:05.893Z,99.90
2023-03-12T16:45:36.412Z,99.90
2023-03-12T16:48:06.258Z,99.90
2023-03-12T16:50:33.239Z,99.90
2023-03-12T16:53:00.809Z,99.90
2023-03-12T16:55:30.490Z,99.90
2023-03-12T16:58:02.482Z,99.90
2023-03-12T17:00:32.876Z,99.90
2023-03-12T17:03:00.760Z,99.90
2023-03-12T17:05:29.866Z,99.90
2023-03-12T17:07:58.292Z,99.90
2023-03-12T17:10:26.410Z,99.90
2023-03-12T17:12:54.063Z,99.90
2023-03-12T17:15:26.028Z,99.90
2023-03-12T17:17:55.796Z,99.90
2023-03-12T17:20:24.658Z,99.90
2023-03-12T17:22:51.634Z,99.90
2023-03-12T17:28:59.336Z,99.90
2023-03-12T17:31:26.473Z,99.90
2023-03-12T17:33:53.587Z,99.90
2023-03-12T17:36:20.528Z,99.90
2023-03-12T17:38:50.345Z,99.90
2023-03-12T17:41:26.070Z,99.90
2023-03-12T17:43:54.941Z,99.90
2023-03-12T17:46:22.347Z,99.90
2023-03-12T17:48:49.410Z,99.90
2023-03-12T17:51:17.036Z,99.90
2023-03-12T17:53:44.282Z,99.90
2023-03-12T17:56:12.865Z,99.90
2023-03-12T17:58:40.024Z,99.90
2023-03-12T18:01:07.266Z,99.90
2023-03-12T18:03:34.502Z,99.90
2023-03-12T18:06:01.822Z,99.90
2023-03-12T18:08:29.075Z,99.90
2023-03-12T18:10:56.120Z,99.90
2023-03-12T18:13:23.175Z,99.90
2023-03-12T18:15:54.790Z,99.90
2023-03-12T18:18:23.515Z,99.90
2023-03-12T18:20:51.022Z,99.90
2023-03-12T18:23:19.156Z,99.90
2023-03-12T18:25:46.345Z,99.90
2023-03-12T18:28:14.266Z,99.90
2023-03-12T18:30:41.474Z,99.90
2023-03-12T18:33:08.514Z,99.90
2023-03-12T18:35:35.809Z,99.90
2023-03-12T18:38:03.074Z,99.90
2023-03-12T18:40:30.520Z,99.90
2023-03-12T18:42:58.504Z,99.90
2023-03-12T18:45:26.066Z,99.90
2023-03-12T18:47:53.173Z,99.90
2023-03-12T18:50:20.635Z,99.90
2023-03-12T18:52:48.106Z,99.90
2023-03-12T18:55:15.866Z,99.90
2023-03-12T18:57:43.461Z,99.90
2023-03-12T19:00:18.802Z,99.90
2023-03-12T19:02:48.246Z,99.90
2023-03-12T19:05:16.397Z,99.90
2023-03-12T19:11:30.825Z,99.90
2023-03-12T19:13:57.934Z,99.90
2023-03-12T19:16:25.016Z,99.90
2023-03-12T19:18:52.213Z,99.90
2023-03-12T19:21:19.253Z,99.90
2023-03-12T19:23:46.305Z,99.90
2023-03-12T19:26:14.709Z,99.90
2023-03-12T19:28:42.060Z,99.90
2023-03-12T19:31:12.641Z,99.90
2023-03-12T19:33:39.777Z,99.90
2023-03-12T19:36:07.269Z,99.90
2023-03-12T19:38:34.435Z,99.90
2023-03-12T19:41:01.385Z,99.90
2023-03-12T19:43:28.648Z,99.90
2023-03-12T19:45:55.979Z,99.90
2023-03-12T19:48:25.312Z,99.90
2023-03-12T19:50:53.933Z,99.90
2023-03-12T19:53:21.140Z,99.90
2023-03-12T19:55:49.739Z,99.90
2023-03-12T19:58:17.395Z,99.90
2023-03-12T20:00:44.582Z,99.90
2023-03-12T20:03:12.419Z,99.90
2023-03-12T20:05:44.111Z,99.90
2023-03-12T20:08:12.396Z,99.90
2023-03-12T20:10:39.960Z,99.90
2023-03-12T20:13:08.578Z,99.90
2023-03-12T20:15:37.532Z,99.90
2023-03-12T20:18:04.507Z,99.90
2023-03-12T20:20:31.660Z,99.90
2023-03-12T20:22:58.716Z,99.90
2023-03-12T20:25:25.762Z,99.90
2023-03-12T20:27:52.851Z,99.90
2023-03-12T20:30:19.884Z,99.90
2023-03-12T20:32:47.152Z,99.90
2023-03-12T20:35:14.193Z,99.90
2023-03-12T20:37:41.247Z,99.90
2023-03-12T20:40:08.940Z,99.90
2023-03-12T20:42:35.986Z,99.90
2023-03-12T20:45:03.108Z,99.90
2023-03-12T20:47:30.082Z,99.90
2023-03-12T20:49:57.122Z,99.90
2023-03-12T20:52:24.223Z,99.90
2023-03-12T20:54:51.337Z,99.90
2023-03-12T20:57:18.392Z,99.90
2023-03-12T20:59:45.449Z,99.90
2023-03-12T21:02:15.933Z,99.90
2023-03-12T21:04:43.317Z,99.90
2023-03-12T21:07:10.599Z,99.90
2023-03-12T21:09:37.648Z,99.90
2023-03-12T21:12:04.843Z,99.90
2023-03-12T21:14:31.913Z,99.90
2023-03-12T21:16:59.104Z,99.90
2023-03-12T21:19:29.594Z,99.90
2023-03-12T21:21:56.637Z,99.90
2023-03-12T21:24:23.531Z,99.90
2023-03-12T21:26:50.466Z,99.90
2023-03-12T21:29:17.488Z,99.90
2023-03-12T21:31:44.549Z,99.90
2023-03-12T21:34:11.752Z,99.90
2023-03-12T21:36:38.739Z,99.90
2023-03-12T21:39:05.784Z,99.90
2023-03-12T21:41:32.831Z,99.90
2023-03-12T21:44:02.540Z,99.90
2023-03-12T21:46:30.695Z,99.90
2023-03-12T21:48:58.725Z,99.90
2023-03-12T21:51:26.322Z,99.90
2023-03-12T21:53:57.843Z,99.90
2023-03-12T21:56:28.279Z,99.90
2023-03-12T21:58:57.224Z,99.90
2023-03-12T22:01:24.694Z,99.90
2023-03-12T22:03:52.075Z,99.90
2023-03-12T22:06:19.193Z,99.90
2023-03-12T22:08:48.329Z,99.90
2023-03-12T22:11:16.345Z,99.90
2023-03-12T22:13:43.508Z,99.90
2023-03-12T22:16:13.166Z,99.90
2023-03-12T22:18:45.404Z,99.90
2023-03-12T22:21:30.243Z,99.90
2023-03-12T22:23:57.506Z,99.90
2023-03-12T22:26:25.870Z,99.90
2023-03-12T22:28:55.230Z,99.90
2023-03-12T22:31:23.542Z,99.90
2023-03-12T22:33:50.749Z,99.90
2023-03-12T22:36:18.745Z,99.90
2023-03-12T22:38:47.859Z,99.90
2023-03-12T22:41:26.430Z,99.90
2023-03-12T22:43:56.091Z,99.90
2023-03-12T22:46:25.417Z,99.90
2023-03-12T22:48:58.120Z,99.90
2023-03-12T22:51:43.573Z,99.90
2023-03-12T22:54:10.756Z,99.90
2023-03-12T22:56:37.668Z,99.90
2023-03-12T22:59:04.643Z,99.90
2023-03-12T23:01:31.695Z,99.90
2023-03-12T23:03:59.907Z,99.90
2023-03-12T23:06:29.978Z,99.90
2023-03-12T23:08:57.449Z,99.90
2023-03-12T23:11:25.913Z,99.90
2023-03-12T23:13:53.785Z,99.90
2023-03-12T23:16:23.584Z,99.90
2023-03-12T23:18:51.052Z,99.90
2023-03-12T23:21:22.627Z,99.90
2023-03-12T23:23:50.668Z,99.90
2023-03-12T23:26:23.517Z,99.90
2023-03-12T23:28:53.461Z,99.90
2023-03-12T23:31:21.544Z,99.90
2023-03-12T23:33:48.714Z,99.90
2023-03-12T23:36:18.646Z,99.90
2023-03-12T23:38:46.678Z,99.90
2023-03-12T23:41:19.799Z,99.90
2023-03-12T23:43:47.088Z,99.90
2023-03-12T23:46:17.037Z,99.90
2023-03-12T23:48:45.674Z,99.90
2023-03-12T23:51:19.419Z,99.90
2023-03-12T23:53:48.718Z,99.90
2023-03-12T23:56:21.454Z,99.90
2023-03-12T23:58:49.142Z,99.90
